sensor_id;sensor_type;location;lat;lon;timestamp;temperature;humidity
26803;DHT22;14378;51.796;5.808;2024-02-04T00:00:52;11.30;99.90
26803;DHT22;14378;51.796;5.808;2024-02-04T00:03:05;11.30;99.90
26803;DHT22;14378;51.796;5.808;2024-02-04T00:05:06;11.30;99.90
26803;DHT22;14378;51.796;5.808;2024-02-04T00:07:08;11.30;99.90
26803;DHT22;14378;51.796;5.808;2024-02-04T00:09:09;11.30;99.90
26803;DHT22;14378;51.796;5.808;2024-02-04T00:11:10;11.30;99.90
26803;DHT22;14378;51.796;5.808;2024-02-04T00:13:16;11.30;99.90
26803;DHT22;14378;51.796;5.808;2024-02-04T00:15:17;11.30;99.90
26803;DHT22;14378;51.796;5.808;2024-02-04T00:17:18;11.30;99.90
26803;DHT22;14378;51.796;5.808;2024-02-04T00:19:21;11.40;99.90
26803;DHT22;14378;51.796;5.808;2024-02-04T00:21:23;11.30;99.90
26803;DHT22;14378;51.796;5.808;2024-02-04T00:23:27;11.30;99.90
26803;DHT22;14378;51.796;5.808;2024-02-04T00:25:45;11.30;99.90
26803;DHT22;14378;51.796;5.808;2024-02-04T00:27:46;11.40;99.90
26803;DHT22;14378;51.796;5.808;2024-02-04T00:29:48;11.40;99.90
26803;DHT22;14378;51.796;5.808;2024-02-04T00:31:49;11.40;99.90
26803;DHT22;14378;51.796;5.808;2024-02-04T00:33:50;11.40;99.90
26803;DHT22;14378;51.796;5.808;2024-02-04T00:35:51;11.40;99.90
26803;DHT22;14378;51.796;5.808;2024-02-04T00:37:52;11.40;99.90
26803;DHT22;14378;51.796;5.808;2024-02-04T00:39:57;11.40;99.90
26803;DHT22;14378;51.796;5.808;2024-02-04T00:41:58;11.50;99.90
26803;DHT22;14378;51.796;5.808;2024-02-04T00:44:00;11.40;99.90
26803;DHT22;14378;51.796;5.808;2024-02-04T00:46:01;11.40;99.90
26803;DHT22;14378;51.796;5.808;2024-02-04T00:48:07;11.40;99.90
26803;DHT22;14378;51.796;5.808;2024-02-04T00:50:09;11.40;99.90
26803;DHT22;14378;51.796;5.808;2024-02-04T00:52:11;11.40;99.90
26803;DHT22;14378;51.796;5.808;2024-02-04T00:54:16;11.40;99.90
26803;DHT22;14378;51.796;5.808;2024-02-04T00:56:17;11.40;99.90
26803;DHT22;14378;51.796;5.808;2024-02-04T00:58:27;11.40;99.90
26803;DHT22;14378;51.796;5.808;2024-02-04T01:00:28;11.40;99.90
26803;DHT22;14378;51.796;5.808;2024-02-04T01:02:29;11.30;99.90
26803;DHT22;14378;51.796;5.808;2024-02-04T01:04:30;11.40;99.90
26803;DHT22;14378;51.796;5.808;2024-02-04T01:06:31;11.30;99.90
26803;DHT22;14378;51.796;5.808;2024-02-04T01:08:31;11.40;99.90
26803;DHT22;14378;51.796;5.808;2024-02-04T01:10:32;11.40;99.90
26803;DHT22;14378;51.796;5.808;2024-02-04T01:12:33;11.40;99.90
26803;DHT22;14378;51.796;5.808;2024-02-04T01:14:35;11.40;99.90
26803;DHT22;14378;51.796;5.808;2024-02-04T01:16:35;11.30;99.90
26803;DHT22;14378;51.796;5.808;2024-02-04T01:18:36;11.30;99.90
26803;DHT22;14378;51.796;5.808;2024-02-04T01:20:37;11.30;99.90
26803;DHT22;14378;51.796;5.808;2024-02-04T01:22:38;11.30;99.90
26803;DHT22;14378;51.796;5.808;2024-02-04T01:24:39;11.30;99.90
26803;DHT22;14378;51.796;5.808;2024-02-04T01:26:40;11.30;99.90
26803;DHT22;14378;51.796;5.808;2024-02-04T01:28:45;11.30;99.90
26803;DHT22;14378;51.796;5.808;2024-02-04T01:30:45;11.30;99.90
26803;DHT22;14378;51.796;5.808;2024-02-04T01:32:46;11.30;99.90
26803;DHT22;14378;51.796;5.808;2024-02-04T01:34:47;11.30;99.90
26803;DHT22;14378;51.796;5.808;2024-02-04T01:36:48;11.30;99.90
26803;DHT22;14378;51.796;5.808;2024-02-04T01:38:49;11.40;99.90
26803;DHT22;14378;51.796;5.808;2024-02-04T01:41:01;11.30;99.90
26803;DHT22;14378;51.796;5.808;2024-02-04T01:43:02;11.30;99.90
26803;DHT22;14378;51.796;5.808;2024-02-04T01:45:04;11.30;99.90
26803;DHT22;14378;51.796;5.808;2024-02-04T01:47:05;11.40;99.90
26803;DHT22;14378;51.796;5.808;2024-02-04T01:49:06;11.40;99.90
26803;DHT22;14378;51.796;5.808;2024-02-04T01:51:07;11.40;99.90
26803;DHT22;14378;51.796;5.808;2024-02-04T01:53:21;11.40;99.90
26803;DHT22;14378;51.796;5.808;2024-02-04T01:55:22;11.40;99.90
26803;DHT22;14378;51.796;5.808;2024-02-04T01:57:44;11.40;99.90
26803;DHT22;14378;51.796;5.808;2024-02-04T01:59:48;11.40;99.90
26803;DHT22;14378;51.796;5.808;2024-02-04T02:01:55;11.40;99.90
26803;DHT22;14378;51.796;5.808;2024-02-04T02:03:56;11.30;99.90
26803;DHT22;14378;51.796;5.808;2024-02-04T02:05:59;11.40;99.90
26803;DHT22;14378;51.796;5.808;2024-02-04T02:08:00;11.30;99.90
26803;DHT22;14378;51.796;5.808;2024-02-04T02:10:03;11.30;99.90
26803;DHT22;14378;51.796;5.808;2024-02-04T02:12:48;11.30;99.90
26803;DHT22;14378;51.796;5.808;2024-02-04T02:15:01;11.30;99.90
26803;DHT22;14378;51.796;5.808;2024-02-04T02:17:09;11.30;99.90
26803;DHT22;14378;51.796;5.808;2024-02-04T02:22:00;11.30;99.90
26803;DHT22;14378;51.796;5.808;2024-02-04T02:24:37;11.30;99.90
26803;DHT22;14378;51.796;5.808;2024-02-04T02:26:40;11.30;99.90
26803;DHT22;14378;51.796;5.808;2024-02-04T02:28:42;11.30;99.90
26803;DHT22;14378;51.796;5.808;2024-02-04T02:30:43;11.30;99.90
26803;DHT22;14378;51.796;5.808;2024-02-04T02:32:44;11.30;99.90
26803;DHT22;14378;51.796;5.808;2024-02-04T02:34:46;11.30;99.90
26803;DHT22;14378;51.796;5.808;2024-02-04T02:39:24;11.20;99.90
26803;DHT22;14378;51.796;5.808;2024-02-04T02:41:28;11.20;99.90
26803;DHT22;14378;51.796;5.808;2024-02-04T02:43:32;11.20;99.90
26803;DHT22;14378;51.796;5.808;2024-02-04T02:45:44;11.20;99.90
26803;DHT22;14378;51.796;5.808;2024-02-04T02:47:46;11.20;99.90
26803;DHT22;14378;51.796;5.808;2024-02-04T02:49:54;11.20;99.90
26803;DHT22;14378;51.796;5.808;2024-02-04T02:51:58;11.20;99.90
26803;DHT22;14378;51.796;5.808;2024-02-04T02:54:02;11.20;99.90
26803;DHT22;14378;51.796;5.808;2024-02-04T02:56:03;11.20;99.90
26803;DHT22;14378;51.796;5.808;2024-02-04T02:58:07;11.20;99.90
26803;DHT22;14378;51.796;5.808;2024-02-04T03:00:09;11.20;99.90
26803;DHT22;14378;51.796;5.808;2024-02-04T03:02:10;11.20;99.90
26803;DHT22;14378;51.796;5.808;2024-02-04T03:04:13;11.20;99.90
26803;DHT22;14378;51.796;5.808;2024-02-04T03:06:15;11.20;99.90
26803;DHT22;14378;51.796;5.808;2024-02-04T03:08:19;11.20;99.90
26803;DHT22;14378;51.796;5.808;2024-02-04T03:10:20;11.20;99.90
26803;DHT22;14378;51.796;5.808;2024-02-04T03:12:28;11.20;99.90
26803;DHT22;14378;51.796;5.808;2024-02-04T03:14:29;11.20;99.90
26803;DHT22;14378;51.796;5.808;2024-02-04T03:16:32;11.20;99.90
26803;DHT22;14378;51.796;5.808;2024-02-04T03:18:33;11.20;99.90
26803;DHT22;14378;51.796;5.808;2024-02-04T03:20:34;11.20;99.90
26803;DHT22;14378;51.796;5.808;2024-02-04T03:22:49;11.20;99.90
26803;DHT22;14378;51.796;5.808;2024-02-04T03:24:53;11.20;99.90
26803;DHT22;14378;51.796;5.808;2024-02-04T03:27:02;11.20;99.90
26803;DHT22;14378;51.796;5.808;2024-02-04T03:29:03;11.20;99.90
26803;DHT22;14378;51.796;5.808;2024-02-04T03:31:12;11.20;99.90
26803;DHT22;14378;51.796;5.808;2024-02-04T03:33:20;11.20;99.90
26803;DHT22;14378;51.796;5.808;2024-02-04T03:35:21;11.20;99.90
26803;DHT22;14378;51.796;5.808;2024-02-04T03:37:22;11.20;99.90
26803;DHT22;14378;51.796;5.808;2024-02-04T03:39:23;11.20;99.90
26803;DHT22;14378;51.796;5.808;2024-02-04T03:41:24;11.10;99.90
26803;DHT22;14378;51.796;5.808;2024-02-04T03:43:26;11.20;99.90
26803;DHT22;14378;51.796;5.808;2024-02-04T03:45:27;11.20;99.90
26803;DHT22;14378;51.796;5.808;2024-02-04T03:47:32;11.20;99.90
26803;DHT22;14378;51.796;5.808;2024-02-04T03:49:33;11.10;99.90
26803;DHT22;14378;51.796;5.808;2024-02-04T03:51:33;11.10;99.90
26803;DHT22;14378;51.796;5.808;2024-02-04T03:53:34;11.20;99.90
26803;DHT22;14378;51.796;5.808;2024-02-04T03:55:54;11.20;99.90
26803;DHT22;14378;51.796;5.808;2024-02-04T03:57:55;11.20;99.90
26803;DHT22;14378;51.796;5.808;2024-02-04T03:59:57;11.20;99.90
26803;DHT22;14378;51.796;5.808;2024-02-04T04:01:58;11.10;99.90
26803;DHT22;14378;51.796;5.808;2024-02-04T04:03:59;11.20;99.90
26803;DHT22;14378;51.796;5.808;2024-02-04T04:06:00;11.10;99.90
26803;DHT22;14378;51.796;5.808;2024-02-04T04:08:01;11.20;99.90
26803;DHT22;14378;51.796;5.808;2024-02-04T04:10:07;11.20;99.90
26803;DHT22;14378;51.796;5.808;2024-02-04T04:12:14;11.10;99.90
26803;DHT22;14378;51.796;5.808;2024-02-04T04:14:18;11.20;99.90
26803;DHT22;14378;51.796;5.808;2024-02-04T04:16:27;11.10;99.90
26803;DHT22;14378;51.796;5.808;2024-02-04T04:18:28;11.10;99.90
26803;DHT22;14378;51.796;5.808;2024-02-04T04:20:33;11.10;99.90
26803;DHT22;14378;51.796;5.808;2024-02-04T04:22:34;11.20;99.90
26803;DHT22;14378;51.796;5.808;2024-02-04T04:24:44;11.10;99.90
26803;DHT22;14378;51.796;5.808;2024-02-04T04:26:54;11.10;99.90
26803;DHT22;14378;51.796;5.808;2024-02-04T04:28:55;11.10;99.90
26803;DHT22;14378;51.796;5.808;2024-02-04T04:30:55;11.10;99.90
26803;DHT22;14378;51.796;5.808;2024-02-04T04:32:57;11.10;99.90
26803;DHT22;14378;51.796;5.808;2024-02-04T04:34:59;11.10;99.90
26803;DHT22;14378;51.796;5.808;2024-02-04T04:37:00;11.10;99.90
26803;DHT22;14378;51.796;5.808;2024-02-04T04:39:01;11.10;99.90
26803;DHT22;14378;51.796;5.808;2024-02-04T04:41:02;11.10;99.90
26803;DHT22;14378;51.796;5.808;2024-02-04T04:43:03;11.00;99.90
26803;DHT22;14378;51.796;5.808;2024-02-04T04:45:04;11.00;99.90
26803;DHT22;14378;51.796;5.808;2024-02-04T04:47:06;11.00;99.90
26803;DHT22;14378;51.796;5.808;2024-02-04T04:49:08;11.00;99.90
26803;DHT22;14378;51.796;5.808;2024-02-04T04:51:11;11.00;99.90
26803;DHT22;14378;51.796;5.808;2024-02-04T04:53:23;11.00;99.90
26803;DHT22;14378;51.796;5.808;2024-02-04T04:55:24;11.00;99.90
26803;DHT22;14378;51.796;5.808;2024-02-04T04:57:25;11.00;99.90
26803;DHT22;14378;51.796;5.808;2024-02-04T04:59:26;11.00;99.90
26803;DHT22;14378;51.796;5.808;2024-02-04T05:01:26;11.00;99.90
26803;DHT22;14378;51.796;5.808;2024-02-04T05:03:27;11.00;99.90
26803;DHT22;14378;51.796;5.808;2024-02-04T05:05:28;11.00;99.90
26803;DHT22;14378;51.796;5.808;2024-02-04T05:07:29;11.00;99.90
26803;DHT22;14378;51.796;5.808;2024-02-04T05:09:30;11.00;99.90
26803;DHT22;14378;51.796;5.808;2024-02-04T05:11:31;11.00;99.90
26803;DHT22;14378;51.796;5.808;2024-02-04T05:13:44;11.00;99.90
26803;DHT22;14378;51.796;5.808;2024-02-04T05:15:45;11.00;99.90
26803;DHT22;14378;51.796;5.808;2024-02-04T05:17:46;10.90;99.90
26803;DHT22;14378;51.796;5.808;2024-02-04T05:19:47;11.00;99.90
26803;DHT22;14378;51.796;5.808;2024-02-04T05:21:48;11.00;99.90
26803;DHT22;14378;51.796;5.808;2024-02-04T05:23:55;11.00;99.90
26803;DHT22;14378;51.796;5.808;2024-02-04T05:25:56;11.10;99.90
26803;DHT22;14378;51.796;5.808;2024-02-04T05:28:00;11.00;99.90
26803;DHT22;14378;51.796;5.808;2024-02-04T05:30:02;11.00;99.90
26803;DHT22;14378;51.796;5.808;2024-02-04T05:32:06;11.00;99.90
26803;DHT22;14378;51.796;5.808;2024-02-04T05:34:13;11.10;99.90
26803;DHT22;14378;51.796;5.808;2024-02-04T05:36:15;11.10;99.90
26803;DHT22;14378;51.796;5.808;2024-02-04T05:38:17;11.10;99.90
26803;DHT22;14378;51.796;5.808;2024-02-04T05:40:18;11.00;99.90
26803;DHT22;14378;51.796;5.808;2024-02-04T05:42:21;11.00;99.90
26803;DHT22;14378;51.796;5.808;2024-02-04T05:44:31;11.00;99.90
26803;DHT22;14378;51.796;5.808;2024-02-04T05:46:43;11.00;99.90
26803;DHT22;14378;51.796;5.808;2024-02-04T05:48:45;11.10;99.90
26803;DHT22;14378;51.796;5.808;2024-02-04T05:50:46;11.00;99.90
26803;DHT22;14378;51.796;5.808;2024-02-04T05:52:47;11.10;99.90
26803;DHT22;14378;51.796;5.808;2024-02-04T05:54:51;11.10;99.90
26803;DHT22;14378;51.796;5.808;2024-02-04T05:56:52;11.10;99.90
26803;DHT22;14378;51.796;5.808;2024-02-04T05:58:59;11.20;99.90
26803;DHT22;14378;51.796;5.808;2024-02-04T06:01:03;11.20;99.90
26803;DHT22;14378;51.796;5.808;2024-02-04T06:03:16;11.20;99.90
26803;DHT22;14378;51.796;5.808;2024-02-04T06:05:22;11.10;99.90
26803;DHT22;14378;51.796;5.808;2024-02-04T06:07:23;11.10;99.90
26803;DHT22;14378;51.796;5.808;2024-02-04T06:09:37;11.10;99.90
26803;DHT22;14378;51.796;5.808;2024-02-04T06:11:54;11.20;99.90
26803;DHT22;14378;51.796;5.808;2024-02-04T06:13:54;11.10;99.90
26803;DHT22;14378;51.796;5.808;2024-02-04T06:15:55;11.10;99.90
26803;DHT22;14378;51.796;5.808;2024-02-04T06:17:56;11.10;99.90
26803;DHT22;14378;51.796;5.808;2024-02-04T06:19:57;11.20;99.90
26803;DHT22;14378;51.796;5.808;2024-02-04T06:22:00;11.20;99.90
26803;DHT22;14378;51.796;5.808;2024-02-04T06:24:11;11.20;99.90
26803;DHT22;14378;51.796;5.808;2024-02-04T06:28:52;11.20;99.90
26803;DHT22;14378;51.796;5.808;2024-02-04T06:31:02;11.20;99.90
26803;DHT22;14378;51.796;5.808;2024-02-04T06:33:03;11.20;99.90
26803;DHT22;14378;51.796;5.808;2024-02-04T06:35:07;11.20;99.90
26803;DHT22;14378;51.796;5.808;2024-02-04T06:37:26;11.20;99.90
26803;DHT22;14378;51.796;5.808;2024-02-04T06:39:27;11.20;99.90
26803;DHT22;14378;51.796;5.808;2024-02-04T06:41:28;11.10;99.90
26803;DHT22;14378;51.796;5.808;2024-02-04T06:43:30;11.20;99.90
26803;DHT22;14378;51.796;5.808;2024-02-04T06:45:32;11.20;99.90
26803;DHT22;14378;51.796;5.808;2024-02-04T06:47:33;11.20;99.90
26803;DHT22;14378;51.796;5.808;2024-02-04T06:49:34;11.20;99.90
26803;DHT22;14378;51.796;5.808;2024-02-04T06:51:35;11.20;99.90
26803;DHT22;14378;51.796;5.808;2024-02-04T06:53:36;11.20;99.90
26803;DHT22;14378;51.796;5.808;2024-02-04T06:55:37;11.20;99.90
26803;DHT22;14378;51.796;5.808;2024-02-04T06:57:38;11.20;99.90
26803;DHT22;14378;51.796;5.808;2024-02-04T06:59:40;11.20;99.90
26803;DHT22;14378;51.796;5.808;2024-02-04T07:01:41;11.20;99.90
26803;DHT22;14378;51.796;5.808;2024-02-04T07:03:42;11.20;99.90
26803;DHT22;14378;51.796;5.808;2024-02-04T07:05:49;11.20;99.90
26803;DHT22;14378;51.796;5.808;2024-02-04T07:07:56;11.20;99.90
26803;DHT22;14378;51.796;5.808;2024-02-04T07:09:58;11.20;99.90
26803;DHT22;14378;51.796;5.808;2024-02-04T07:11:59;11.20;99.90
26803;DHT22;14378;51.796;5.808;2024-02-04T07:14:00;11.10;99.90
26803;DHT22;14378;51.796;5.808;2024-02-04T07:16:01;11.20;99.90
26803;DHT22;14378;51.796;5.808;2024-02-04T07:18:03;11.20;99.90
26803;DHT22;14378;51.796;5.808;2024-02-04T07:20:30;11.10;99.90
26803;DHT22;14378;51.796;5.808;2024-02-04T07:22:31;11.10;99.90
26803;DHT22;14378;51.796;5.808;2024-02-04T07:24:42;11.20;99.90
26803;DHT22;14378;51.796;5.808;2024-02-04T07:26:43;11.20;99.90
26803;DHT22;14378;51.796;5.808;2024-02-04T07:28:44;11.10;99.90
26803;DHT22;14378;51.796;5.808;2024-02-04T07:30:48;11.10;99.90
26803;DHT22;14378;51.796;5.808;2024-02-04T07:32:55;11.10;99.90
26803;DHT22;14378;51.796;5.808;2024-02-04T07:35:04;11.20;99.90
26803;DHT22;14378;51.796;5.808;2024-02-04T07:37:08;11.10;99.90
26803;DHT22;14378;51.796;5.808;2024-02-04T07:39:10;11.10;99.90
26803;DHT22;14378;51.796;5.808;2024-02-04T07:41:19;11.10;99.90
26803;DHT22;14378;51.796;5.808;2024-02-04T07:43:25;11.20;99.90
26803;DHT22;14378;51.796;5.808;2024-02-04T07:45:26;11.10;99.90
26803;DHT22;14378;51.796;5.808;2024-02-04T07:47:37;11.10;99.90
26803;DHT22;14378;51.796;5.808;2024-02-04T07:49:48;11.10;99.90
26803;DHT22;14378;51.796;5.808;2024-02-04T07:51:57;11.10;99.90
26803;DHT22;14378;51.796;5.808;2024-02-04T07:53:58;11.10;99.90
26803;DHT22;14378;51.796;5.808;2024-02-04T07:56:02;11.10;99.90
26803;DHT22;14378;51.796;5.808;2024-02-04T07:58:13;11.10;99.90
26803;DHT22;14378;51.796;5.808;2024-02-04T08:00:14;11.10;99.90
26803;DHT22;14378;51.796;5.808;2024-02-04T08:02:15;11.10;99.90
26803;DHT22;14378;51.796;5.808;2024-02-04T08:04:16;11.00;99.90
26803;DHT22;14378;51.796;5.808;2024-02-04T08:06:17;11.10;99.90
26803;DHT22;14378;51.796;5.808;2024-02-04T08:09:04;11.00;99.90
26803;DHT22;14378;51.796;5.808;2024-02-04T08:10:48;11.00;99.90
26803;DHT22;14378;51.796;5.808;2024-02-04T08:12:49;11.00;99.90
26803;DHT22;14378;51.796;5.808;2024-02-04T08:14:51;11.00;99.90
26803;DHT22;14378;51.796;5.808;2024-02-04T08:16:52;11.00;99.90
26803;DHT22;14378;51.796;5.808;2024-02-04T08:18:54;11.00;99.90
26803;DHT22;14378;51.796;5.808;2024-02-04T08:21:12;11.00;99.90
26803;DHT22;14378;51.796;5.808;2024-02-04T08:23:16;10.90;99.90
26803;DHT22;14378;51.796;5.808;2024-02-04T08:25:21;10.90;99.90
26803;DHT22;14378;51.796;5.808;2024-02-04T08:27:25;10.90;99.90
26803;DHT22;14378;51.796;5.808;2024-02-04T08:29:30;10.90;99.90
26803;DHT22;14378;51.796;5.808;2024-02-04T08:31:32;10.90;99.90
26803;DHT22;14378;51.796;5.808;2024-02-04T08:33:34;10.90;99.90
26803;DHT22;14378;51.796;5.808;2024-02-04T08:35:45;10.90;99.90
26803;DHT22;14378;51.796;5.808;2024-02-04T08:37:56;10.90;99.90
26803;DHT22;14378;51.796;5.808;2024-02-04T08:40:09;10.90;99.90
26803;DHT22;14378;51.796;5.808;2024-02-04T08:42:11;10.90;99.90
26803;DHT22;14378;51.796;5.808;2024-02-04T08:44:16;10.90;99.90
26803;DHT22;14378;51.796;5.808;2024-02-04T08:46:37;11.00;99.90
26803;DHT22;14378;51.796;5.808;2024-02-04T08:48:38;11.00;99.90
26803;DHT22;14378;51.796;5.808;2024-02-04T08:51:14;11.00;99.90
26803;DHT22;14378;51.796;5.808;2024-02-04T08:53:22;11.10;99.90
26803;DHT22;14378;51.796;5.808;2024-02-04T08:55:24;11.10;99.90
26803;DHT22;14378;51.796;5.808;2024-02-04T08:57:43;11.10;99.90
26803;DHT22;14378;51.796;5.808;2024-02-04T09:02:42;11.20;99.90
26803;DHT22;14378;51.796;5.808;2024-02-04T09:04:43;11.10;99.90
26803;DHT22;14378;51.796;5.808;2024-02-04T09:06:47;11.10;99.90
26803;DHT22;14378;51.796;5.808;2024-02-04T09:09:20;11.20;99.90
26803;DHT22;14378;51.796;5.808;2024-02-04T09:11:26;11.20;99.90
26803;DHT22;14378;51.796;5.808;2024-02-04T09:13:27;11.20;99.90
26803;DHT22;14378;51.796;5.808;2024-02-04T09:15:29;11.20;99.90
26803;DHT22;14378;51.796;5.808;2024-02-04T09:17:30;11.20;99.90
26803;DHT22;14378;51.796;5.808;2024-02-04T09:19:41;11.20;99.90
26803;DHT22;14378;51.796;5.808;2024-02-04T09:21:43;11.20;99.90
26803;DHT22;14378;51.796;5.808;2024-02-04T09:23:55;11.20;99.90
26803;DHT22;14378;51.796;5.808;2024-02-04T09:26:03;11.20;99.90
26803;DHT22;14378;51.796;5.808;2024-02-04T09:28:05;11.20;99.90
26803;DHT22;14378;51.796;5.808;2024-02-04T09:30:08;11.20;99.90
26803;DHT22;14378;51.796;5.808;2024-02-04T09:32:25;11.20;99.90
26803;DHT22;14378;51.796;5.808;2024-02-04T09:35:16;11.20;99.90
26803;DHT22;14378;51.796;5.808;2024-02-04T09:37:37;11.30;99.90
26803;DHT22;14378;51.796;5.808;2024-02-04T09:39:44;11.30;99.90
26803;DHT22;14378;51.796;5.808;2024-02-04T09:42:09;11.30;99.90
26803;DHT22;14378;51.796;5.808;2024-02-04T09:44:42;11.40;99.90
26803;DHT22;14378;51.796;5.808;2024-02-04T09:46:48;11.40;99.90
26803;DHT22;14378;51.796;5.808;2024-02-04T09:49:12;11.40;99.90
26803;DHT22;14378;51.796;5.808;2024-02-04T09:51:16;11.50;99.90
26803;DHT22;14378;51.796;5.808;2024-02-04T09:53:46;11.50;99.90
26803;DHT22;14378;51.796;5.808;2024-02-04T09:56:31;11.50;99.90
26803;DHT22;14378;51.796;5.808;2024-02-04T09:58:42;11.50;99.90
26803;DHT22;14378;51.796;5.808;2024-02-04T10:00:45;11.50;99.90
26803;DHT22;14378;51.796;5.808;2024-02-04T10:03:00;11.50;99.90
26803;DHT22;14378;51.796;5.808;2024-02-04T10:05:06;11.60;99.90
26803;DHT22;14378;51.796;5.808;2024-02-04T10:07:58;11.60;99.90
26803;DHT22;14378;51.796;5.808;2024-02-04T10:10:08;11.70;99.90
26803;DHT22;14378;51.796;5.808;2024-02-04T10:12:40;11.70;99.90
26803;DHT22;14378;51.796;5.808;2024-02-04T10:15:11;11.70;99.90
26803;DHT22;14378;51.796;5.808;2024-02-04T10:17:37;11.70;99.90
26803;DHT22;14378;51.796;5.808;2024-02-04T10:19:50;11.80;99.90
26803;DHT22;14378;51.796;5.808;2024-02-04T10:22:08;11.80;99.90
26803;DHT22;14378;51.796;5.808;2024-02-04T10:25:25;11.80;99.90
26803;DHT22;14378;51.796;5.808;2024-02-04T10:28:13;11.80;99.90
26803;DHT22;14378;51.796;5.808;2024-02-04T10:30:13;11.80;99.90
26803;DHT22;14378;51.796;5.808;2024-02-04T10:32:15;11.80;99.90
26803;DHT22;14378;51.796;5.808;2024-02-04T10:36:55;11.80;99.90
26803;DHT22;14378;51.796;5.808;2024-02-04T10:39:04;11.80;99.90
26803;DHT22;14378;51.796;5.808;2024-02-04T10:41:15;11.90;99.90
26803;DHT22;14378;51.796;5.808;2024-02-04T10:43:35;11.80;99.90
26803;DHT22;14378;51.796;5.808;2024-02-04T10:45:45;11.80;99.90
26803;DHT22;14378;51.796;5.808;2024-02-04T10:47:56;11.80;99.90
26803;DHT22;14378;51.796;5.808;2024-02-04T10:50:10;11.80;99.90
26803;DHT22;14378;51.796;5.808;2024-02-04T10:53:24;11.80;99.90
26803;DHT22;14378;51.796;5.808;2024-02-04T10:55:30;11.80;99.90
26803;DHT22;14378;51.796;5.808;2024-02-04T10:57:41;11.80;99.90
26803;DHT22;14378;51.796;5.808;2024-02-04T10:59:49;11.70;99.90
26803;DHT22;14378;51.796;5.808;2024-02-04T11:02:11;11.80;99.90
26803;DHT22;14378;51.796;5.808;2024-02-04T11:04:27;11.80;99.90
26803;DHT22;14378;51.796;5.808;2024-02-04T11:06:36;11.80;99.90
26803;DHT22;14378;51.796;5.808;2024-02-04T11:08:44;11.80;99.90
26803;DHT22;14378;51.796;5.808;2024-02-04T11:10:56;11.70;99.90
26803;DHT22;14378;51.796;5.808;2024-02-04T11:15:40;11.80;99.90
26803;DHT22;14378;51.796;5.808;2024-02-04T11:20:52;11.80;99.90
26803;DHT22;14378;51.796;5.808;2024-02-04T11:25:46;11.70;99.90
26803;DHT22;14378;51.796;5.808;2024-02-04T11:27:52;11.60;99.90
26803;DHT22;14378;51.796;5.808;2024-02-04T11:29:56;11.60;99.90
26803;DHT22;14378;51.796;5.808;2024-02-04T11:34:25;11.60;99.90
26803;DHT22;14378;51.796;5.808;2024-02-04T11:36:39;11.60;99.90
26803;DHT22;14378;51.796;5.808;2024-02-04T11:38:55;11.60;99.90
26803;DHT22;14378;51.796;5.808;2024-02-04T11:41:03;11.60;99.90
26803;DHT22;14378;51.796;5.808;2024-02-04T11:43:28;11.60;99.90
26803;DHT22;14378;51.796;5.808;2024-02-04T11:46:07;11.60;99.90
26803;DHT22;14378;51.796;5.808;2024-02-04T11:48:33;11.60;99.90
26803;DHT22;14378;51.796;5.808;2024-02-04T11:50:34;11.60;99.90
26803;DHT22;14378;51.796;5.808;2024-02-04T11:52:42;11.60;99.90
26803;DHT22;14378;51.796;5.808;2024-02-04T11:54:43;11.60;99.90
26803;DHT22;14378;51.796;5.808;2024-02-04T11:56:45;11.60;99.90
26803;DHT22;14378;51.796;5.808;2024-02-04T11:59:03;11.60;99.90
26803;DHT22;14378;51.796;5.808;2024-02-04T12:01:24;11.60;99.90
26803;DHT22;14378;51.796;5.808;2024-02-04T12:03:43;11.60;99.90
26803;DHT22;14378;51.796;5.808;2024-02-04T12:05:47;11.70;99.90
26803;DHT22;14378;51.796;5.808;2024-02-04T12:08:05;11.60;99.90
26803;DHT22;14378;51.796;5.808;2024-02-04T12:10:16;11.70;99.90
26803;DHT22;14378;51.796;5.808;2024-02-04T12:15:23;11.70;99.90
26803;DHT22;14378;51.796;5.808;2024-02-04T12:18:16;11.70;99.90
26803;DHT22;14378;51.796;5.808;2024-02-04T12:20:43;11.60;99.90
26803;DHT22;14378;51.796;5.808;2024-02-04T12:23:01;11.70;99.90
26803;DHT22;14378;51.796;5.808;2024-02-04T12:25:13;11.70;99.90
26803;DHT22;14378;51.796;5.808;2024-02-04T12:27:28;11.60;99.90
26803;DHT22;14378;51.796;5.808;2024-02-04T12:30:12;11.60;99.90
26803;DHT22;14378;51.796;5.808;2024-02-04T12:32:45;11.60;99.90
26803;DHT22;14378;51.796;5.808;2024-02-04T12:35:27;11.60;99.90
26803;DHT22;14378;51.796;5.808;2024-02-04T12:38:01;11.60;99.90
26803;DHT22;14378;51.796;5.808;2024-02-04T12:40:07;11.70;99.90
26803;DHT22;14378;51.796;5.808;2024-02-04T12:42:55;11.70;99.90
26803;DHT22;14378;51.796;5.808;2024-02-04T12:44:58;11.60;99.90
26803;DHT22;14378;51.796;5.808;2024-02-04T12:49:30;11.60;99.90
26803;DHT22;14378;51.796;5.808;2024-02-04T12:52:04;11.60;99.90
26803;DHT22;14378;51.796;5.808;2024-02-04T12:54:14;11.60;99.90
26803;DHT22;14378;51.796;5.808;2024-02-04T12:57:01;11.60;99.90
26803;DHT22;14378;51.796;5.808;2024-02-04T12:59:30;11.70;99.90
26803;DHT22;14378;51.796;5.808;2024-02-04T13:01:45;11.70;99.90
26803;DHT22;14378;51.796;5.808;2024-02-04T13:03:47;11.70;99.90
26803;DHT22;14378;51.796;5.808;2024-02-04T13:06:00;11.70;99.90
26803;DHT22;14378;51.796;5.808;2024-02-04T13:08:08;11.60;99.90
26803;DHT22;14378;51.796;5.808;2024-02-04T13:10:13;11.70;99.90
26803;DHT22;14378;51.796;5.808;2024-02-04T13:12:23;11.70;99.90
26803;DHT22;14378;51.796;5.808;2024-02-04T13:14:45;11.70;99.90
26803;DHT22;14378;51.796;5.808;2024-02-04T13:16:53;11.60;99.90
26803;DHT22;14378;51.796;5.808;2024-02-04T13:18:54;11.60;99.90
26803;DHT22;14378;51.796;5.808;2024-02-04T13:20:57;11.60;99.90
26803;DHT22;14378;51.796;5.808;2024-02-04T13:23:21;11.60;99.90
26803;DHT22;14378;51.796;5.808;2024-02-04T13:25:46;11.60;99.90
26803;DHT22;14378;51.796;5.808;2024-02-04T13:27:54;11.60;99.90
26803;DHT22;14378;51.796;5.808;2024-02-04T13:30:24;11.60;99.90
26803;DHT22;14378;51.796;5.808;2024-02-04T13:32:46;11.60;99.90
26803;DHT22;14378;51.796;5.808;2024-02-04T13:34:59;11.60;99.90
26803;DHT22;14378;51.796;5.808;2024-02-04T13:37:16;11.60;99.90
26803;DHT22;14378;51.796;5.808;2024-02-04T13:39:27;11.60;99.90
26803;DHT22;14378;51.796;5.808;2024-02-04T13:41:49;11.60;99.90
26803;DHT22;14378;51.796;5.808;2024-02-04T13:44:08;11.60;99.90
26803;DHT22;14378;51.796;5.808;2024-02-04T13:46:18;11.60;99.90
26803;DHT22;14378;51.796;5.808;2024-02-04T13:48:24;11.60;99.90
26803;DHT22;14378;51.796;5.808;2024-02-04T13:50:29;11.60;99.90
26803;DHT22;14378;51.796;5.808;2024-02-04T13:56:03;11.60;99.90
26803;DHT22;14378;51.796;5.808;2024-02-04T13:58:28;11.60;99.90
26803;DHT22;14378;51.796;5.808;2024-02-04T14:00:56;11.70;99.90
26803;DHT22;14378;51.796;5.808;2024-02-04T14:03:14;11.70;99.90